Costa Fascinosa — ICPO — position and weather

sailwx.info

Track history (hours):
 
Tides and Currents Weather Stations Pressure Air Temp Water Temp Dewpoint Dewpoint Depression Visibility Wind Speed Wind Dir Waves Ship Positions

Costa Fascinosa

Last reported at 2017-May-28 11:56 UTC. Time now 2017-May-28 12:23 UTC.
Position N 44°19' E 008°29'.

Length 291 m; draft 8.3 m.

Type: Passenger vessel. MMSI: 247313500.

Date/timePositionNaut miles runAvg speedWind from/ knotsBaromVisibWave heightAir tempDewpointWater temp
2017-May-28 11:56N 44°19' E 008°29'0 0.0
2017-May-28 11:26N 44°19' E 008°29'0 0.0
2017-May-28 10:50N 44°19' E 008°29'0 0.0
2017-May-28 10:26N 44°19' E 008°29'0 0.0
2017-May-28 09:56N 44°19' E 008°29'0 0.0
2017-May-28 09:26N 44°19' E 008°29'0 0.0
2017-May-28 08:50N 44°19' E 008°29'0 0.0
2017-May-28 08:26N 44°19' E 008°29'0 0.0
2017-May-28 07:56N 44°19' E 008°29'0 0.0
2017-May-28 07:26N 44°19' E 008°29'0 0.0
2017-May-28 06:56N 44°19' E 008°29'0 0.0
2017-May-28 06:26N 44°19' E 008°29'1 1.6
2017-May-28 06:01N 44°19' E 008°30'3 6.9
2017-May-28 05:30N 44°16' E 008°32'917.7
2017-May-28 05:01N 44°08' E 008°27'1020.8
2017-May-28 04:30N 43°59' E 008°19'1020.5
2017-May-28 04:01N 43°50' E 008°12'1019.8
2017-May-28 03:31N 43°44' E 008°02'1019.9
2017-May-28 03:01N 43°38' E 007°51'1020.1
2017-May-28 02:31N 43°32' E 007°39'1020.2
2017-May-28 02:01N 43°28' E 007°26'1020.2
2017-May-28 01:30N 43°21' E 007°16'1920.5
2017-May-28 00:35N 43°10' E 006°55'220.4
2017-May-28 00:30N 43°09' E 006°54'4119.9
2017-May-27 22:27N 42°47' E 006°06'1820.3
2017-May-27 21:34N 42°39' E 005°45'220.4
2017-May-27 21:29N 42°38' E 005°43'1320.5
2017-May-27 20:52N 42°32' E 005°28'1020.5
2017-May-27 20:24N 42°28' E 005°16'1620.6
2017-May-27 19:39N 42°20' E 004°58'820.7
2017-May-27 19:16N 42°16' E 004°49'921.0
2017-May-27 18:50N 42°12' E 004°37'720.9
2017-May-27 18:31N 42°09' E 004°30'1121.0
2017-May-27 17:59N 42°03' E 004°16'1021.3
2017-May-27 17:29N 41°58' E 004°04'1221.3
2017-May-27 16:56N 41°53' E 003°50'1120.9
2017-May-27 16:23N 41°47' E 003°37'820.8
2017-May-27 16:01N 41°44' E 003°27'1320.9
2017-May-27 15:23N 41°37' E 003°12'1020.7
2017-May-27 14:54N 41°33' E 003°00'2220.4
2017-May-27 13:49N 41°22' E 002°35'720.5
2017-May-27 13:28N 41°18' E 002°26'1020.0
2017-May-27 12:59N 41°16' E 002°14'511.5
2017-May-27 12:30N 41°20' E 002°10'2 2.8
2017-May-27 11:56N 41°22' E 002°11'0 0.0
2017-May-27 11:26N 41°22' E 002°11'0 0.0
2017-May-27 10:59N 41°22' E 002°11'0 0.0
2017-May-27 10:20N 41°22' E 002°11'0 0.0
2017-May-27 09:56N 41°22' E 002°11'0 0.0
2017-May-27 09:26N 41°22' E 002°11'0 0.0
2017-May-27 07:02N 41°22' E 002°11'0 0.0
2017-May-27 05:36N 41°22' E 002°11'0 1.9
2017-May-27 05:25N 41°21' E 002°11'4 5.1
2017-May-27 04:43N 41°18' E 002°11'210.2
2017-May-27 04:29N 41°16' E 002°11'611.3
2017-May-27 04:00N 41°10' E 002°11'611.1
2017-May-27 03:30N 41°05' E 002°11'611.5
2017-May-27 03:00N 40°59' E 002°11'611.6
2017-May-27 02:30N 40°53' E 002°11'611.7
2017-May-27 02:00N 40°47' E 002°11'611.8
2017-May-27 01:30N 40°41' E 002°12'611.8
2017-May-27 01:00N 40°35' E 002°12'611.6
2017-May-27 00:30N 40°30' E 002°12'611.4
2017-May-27 00:00N 40°24' E 002°12'611.2
2017-May-26 23:30N 40°18' E 002°13'611.2
2017-May-26 23:00N 40°13' E 002°13'611.4
2017-May-26 22:30N 40°07' E 002°14'611.5
2017-May-26 22:00N 40°01' E 002°13'611.7
2017-May-26 21:30N 39°55' E 002°14'611.7
2017-May-26 21:00N 39°50' E 002°14'711.5
2017-May-26 20:25N 39°43' E 002°14'511.7
2017-May-26 20:00N 39°38' E 002°14'611.6
2017-May-26 19:27N 39°32' E 002°15'511.9
2017-May-26 19:00N 39°27' E 002°19'611.1
2017-May-26 18:30N 39°25' E 002°26'612.1
2017-May-26 18:00N 39°25' E 002°34'612.3
2017-May-26 17:30N 39°30' E 002°38'3 0.3
2017-May-26 08:15N 39°33' E 002°38'0 0.0
2017-May-26 07:57N 39°33' E 002°38'0 0.0
2017-May-26 07:27N 39°33' E 002°38'0 0.0
2017-May-26 06:57N 39°33' E 002°38'0 0.4
2017-May-26 06:30N 39°33' E 002°38'2 3.1
2017-May-26 06:00N 39°32' E 002°39'611.6
2017-May-26 05:30N 39°27' E 002°35'612.1
2017-May-26 05:00N 39°22' E 002°30'611.7
2017-May-26 04:30N 39°17' E 002°27'611.6
2017-May-26 04:00N 39°13' E 002°21'611.8
2017-May-26 03:30N 39°09' E 002°15'611.8
2017-May-26 03:00N 39°06' E 002°08'612.0
2017-May-26 02:30N 39°03' E 002°02'612.2
2017-May-26 02:00N 38°60' E 001°55'611.9
2017-May-26 01:30N 38°57' E 001°48'612.2
2017-May-26 01:00N 38°56' E 001°41'612.5
2017-May-26 00:30N 38°54' E 001°33'5 0.3
2017-May-25 06:25N 38°54' E 001°27'3 7.0
2017-May-25 05:58N 38°51' E 001°29'4 8.2
2017-May-25 05:30N 38°51' E 001°34'918.5
2017-May-25 05:00N 38°50' E 001°46'918.7
2017-May-25 04:30N 38°49' E 001°58'918.6
2017-May-25 04:01N 38°49' E 002°10'918.3
2017-May-25 03:30N 38°48' E 002°21'1018.4
2017-May-25 02:58N 38°48' E 002°34'918.5
2017-May-25 02:30N 38°47' E 002°45'918.7
2017-May-25 02:00N 38°47' E 002°57'918.7
2017-May-25 01:30N 38°46' E 003°09'918.7
2017-May-25 01:00N 38°45' E 003°21'918.6
2017-May-25 00:30N 38°45' E 003°33'918.6
2017-May-25 00:01N 38°45' E 003°45'918.3
2017-May-24 23:30N 38°44' E 003°56'918.4
2017-May-24 23:00N 38°43' E 004°08'1618.5
2017-May-24 22:07N 38°42' E 004°29'417.7
2017-May-24 21:55N 38°42' E 004°34'4617.8
2017-May-24 19:20N 38°39' E 005°33'1217.7
2017-May-24 18:40N 38°39' E 005°48'1017.9
2017-May-24 18:07N 38°38' E 006°00'518.1
2017-May-24 17:50N 38°38' E 006°07'618.1
2017-May-24 17:30N 38°37' E 006°14'918.0
2017-May-24 16:59N 38°37' E 006°26'918.5
2017-May-24 16:28N 38°36' E 006°38'918.5
2017-May-24 15:59N 38°36' E 006°50'1318.3
2017-May-24 15:17N 38°35' E 007°06'1218.1
2017-May-24 14:39N 38°36' E 007°21'417.5
2017-May-24 14:24N 38°36' E 007°27'1112.9
2017-May-24 13:30N 38°34' E 007°41'1012.6
2017-May-24 12:44N 38°32' E 007°54'312.7
2017-May-24 12:30N 38°32' E 007°57'1012.6
2017-May-24 11:43N 38°31' E 008°10'612.6
2017-May-24 11:14N 38°31' E 008°18'712.5
2017-May-24 10:40N 38°30' E 008°27'212.6
2017-May-24 10:29N 38°30' E 008°30'712.6
2017-May-24 09:53N 38°30' E 008°39'17913.3
2017-May-23 20:23N 38°20' E 012°27'513.7
2017-May-23 20:00N 38°19' E 012°34'713.7
2017-May-23 19:28N 38°19' E 012°44'613.8
2017-May-23 19:00N 38°18' E 012°52'713.7
2017-May-23 18:30N 38°18' E 013°00'713.3
2017-May-23 18:00N 38°18' E 013°09'713.1
2017-May-23 17:30N 38°17' E 013°17'611.9
2017-May-23 17:00N 38°15' E 013°24'612.0
2017-May-23 16:30N 38°09' E 013°25'3 5.8
2017-May-23 16:01N 38°08' E 013°22'0 0.0
2017-May-23 10:55N 38°08' E 013°22'0 0.0
2017-May-23 10:25N 38°08' E 013°22'0 0.0
2017-May-23 09:49N 38°08' E 013°22'0 0.0
2017-May-23 09:25N 38°08' E 013°22'0 0.0
2017-May-23 08:55N 38°08' E 013°22'0 0.0
2017-May-23 08:28N 38°08' E 013°22'0 0.0
2017-May-23 07:58N 38°08' E 013°22'0 0.0
2017-May-23 07:28N 38°08' E 013°22'0 0.0
2017-May-23 06:58N 38°08' E 013°22'0 0.0
2017-May-23 06:30N 38°08' E 013°22'2 3.3
2017-May-23 06:00N 38°08' E 013°24'612.1
2017-May-23 05:30N 38°14' E 013°26'918.5
2017-May-23 05:00N 38°23' E 013°29'918.3
2017-May-23 04:30N 38°31' E 013°32'918.3
2017-May-23 04:00N 38°40' E 013°34'918.6
2017-May-23 03:30N 38°50' E 013°37'918.3
2017-May-23 03:00N 38°59' E 013°40'816.6
2017-May-23 02:30N 39°06' E 013°42'712.6
2017-May-23 01:56N 39°14' E 013°44'613.0
2017-May-23 01:30N 39°19' E 013°45'613.0
2017-May-23 01:00N 39°26' E 013°46'713.1
2017-May-23 00:29N 39°32' E 013°49'612.9
2017-May-23 00:00N 39°38' E 013°52'812.8
2017-May-22 23:20N 39°46' E 013°54'512.8
2017-May-22 22:57N 39°51' E 013°56'1313.0
2017-May-22 21:55N 40°04' E 013°59'513.3
2017-May-22 21:30N 40°09' E 014°01'713.2
2017-May-22 21:00N 40°16' E 014°03'713.3
2017-May-22 20:30N 40°22' E 014°05'133 7.8
2017-May-22 03:32N 41°29' E 011°33'821.2
2017-May-22 03:09N 41°33' E 011°24'521.5
2017-May-22 02:55N 41°36' E 011°19'921.6
2017-May-22 02:30N 41°41' E 011°09'1121.3
2017-May-22 02:00N 41°47' E 010°56'1820.8
2017-May-22 01:09N 41°57' E 010°37'420.6
2017-May-22 00:57N 41°59' E 010°32'920.5
2017-May-22 00:30N 42°04' E 010°22'1021.0
2017-May-22 00:00N 42°10' E 010°10'1121.4
2017-May-21 23:30N 42°17' E 009°59'1121.0
2017-May-21 23:00N 42°25' E 009°51'1021.0
2017-May-21 22:30N 42°35' E 009°45'1020.9
2017-May-21 22:00N 42°45' E 009°41'1121.1
2017-May-21 21:31N 42°55' E 009°37'1020.8
2017-May-21 21:00N 43°05' E 009°33'1020.8
2017-May-21 20:31N 43°14' E 009°26'1020.4
2017-May-21 20:01N 43°22' E 009°18'1020.5
2017-May-21 19:31N 43°31' E 009°11'1020.5
2017-May-21 19:01N 43°40' E 009°04'1020.3
2017-May-21 18:31N 43°49' E 008°57'1020.4
2017-May-21 18:00N 43°58' E 008°50'1020.6
2017-May-21 17:31N 44°07' E 008°43'1020.1
2017-May-21 17:01N 44°15' E 008°35'510.5
2017-May-21 16:30N 44°19' E 008°30'1 0.3
2017-May-21 14:21N 44°19' E 008°29'0 0.0
2017-May-21 10:51N 44°19' E 008°29'0 0.0
2017-May-21 10:27N 44°19' E 008°29'0 0.0
2017-May-21 09:57N 44°19' E 008°29'0 0.0
2017-May-21 09:27N 44°19' E 008°29'0 0.0
2017-May-21 08:57N 44°19' E 008°29'0 0.0
2017-May-21 08:27N 44°19' E 008°29'0 0.0
2017-May-21 07:57N 44°19' E 008°29'0 0.0
2017-May-21 07:27N 44°19' E 008°29'0 0.0
2017-May-21 06:51N 44°19' E 008°29'0 0.0
2017-May-21 06:30N 44°19' E 008°29'0 0.6
2017-May-21 06:00N 44°19' E 008°30'3 5.4
2017-May-21 05:30N 44°17' E 008°32'714.3
2017-May-21 05:00N 44°10' E 008°29'918.1
2017-May-21 04:30N 44°03' E 008°22'918.5
2017-May-21 04:01N 43°55' E 008°16'918.1
2017-May-21 03:31N 43°47' E 008°08'918.1
2017-May-21 03:00N 43°42' E 007°58'918.1
2017-May-21 02:30N 43°36' E 007°48'917.9
2017-May-21 02:01N 43°31' E 007°38'917.2
2017-May-21 01:30N 43°27' E 007°28'612.5
2017-May-21 01:00N 43°23' E 007°21'612.6
2017-May-21 00:30N 43°19' E 007°14'612.6
2017-May-21 00:00N 43°15' E 007°08'612.6
2017-May-20 23:30N 43°11' E 007°02'612.3
2017-May-20 23:00N 43°07' E 006°55'612.2
2017-May-20 22:30N 43°05' E 006°47'612.0
2017-May-20 22:00N 43°02' E 006°40'612.2
2017-May-20 21:30N 42°58' E 006°33'4712.9
2017-May-20 17:53N 43°04' E 005°30'513.5
2017-May-20 17:30N 43°06' E 005°24'613.1
2017-May-20 17:00N 43°09' E 005°15'612.3
2017-May-20 16:30N 43°13' E 005°09'612.2
2017-May-20 16:00N 43°18' E 005°13'510.3
2017-May-20 15:30N 43°21' E 005°19'1 1.2
2017-May-20 14:46N 43°21' E 005°20'0 0.0
2017-May-20 13:52N 43°21' E 005°20'0 0.0
2017-May-20 13:22N 43°21' E 005°20'0 0.0
2017-May-20 12:52N 43°21' E 005°20'0 0.0
2017-May-20 12:22N 43°21' E 005°20'0 0.0
2017-May-20 11:52N 43°21' E 005°20'0 0.0
2017-May-20 11:22N 43°21' E 005°20'0 0.0
2017-May-20 10:52N 43°21' E 005°20'0 0.0
2017-May-20 10:22N 43°21' E 005°20'0 0.0
2017-May-20 09:52N 43°21' E 005°20'0 0.0
2017-May-20 09:22N 43°21' E 005°20'0 0.0
2017-May-20 08:58N 43°21' E 005°20'0 0.0
2017-May-20 08:28N 43°21' E 005°20'0 0.0
2017-May-20 07:58N 43°21' E 005°20'0 0.0
2017-May-20 07:28N 43°21' E 005°20'0 0.0
2017-May-20 06:58N 43°21' E 005°20'0 0.0
2017-May-20 06:28N 43°21' E 005°20'0 0.0
2017-May-20 05:58N 43°21' E 005°20'0 0.0
2017-May-20 05:28N 43°21' E 005°20'0 0.0
2017-May-20 04:58N 43°21' E 005°20'0 0.0
2017-May-20 04:26N 43°21' E 005°20'1 3.4
2017-May-20 04:00N 43°21' E 005°18'510.8
2017-May-20 03:30N 43°17' E 005°13'816.4
2017-May-20 03:00N 43°10' E 005°07'1117.7
2017-May-20 02:24N 43°09' E 004°52'817.6
2017-May-20 01:56N 43°08' E 004°41'717.3
2017-May-20 01:30N 43°06' E 004°31'815.9
2017-May-20 01:00N 43°06' E 004°20'816.2
2017-May-20 00:30N 43°05' E 004°09'12616.1
2017-May-19 16:41N 41°23' E 002°30'518.4
2017-May-19 16:25N 41°19' E 002°25'717.0
2017-May-19 16:00N 41°15' E 002°17'612.5
2017-May-19 15:30N 41°19' E 002°10'13 1.3
2017-May-19 05:40N 41°07' E 002°17'318.9
2017-May-19 05:30N 41°05' E 002°19'1019.3
2017-May-19 05:00N 40°56' E 002°24'919.0
2017-May-19 04:30N 40°47' E 002°30'918.8
2017-May-19 04:00N 40°39' E 002°35'918.5
2017-May-19 03:30N 40°31' E 002°41'918.4
2017-May-19 03:00N 40°23' E 002°47'918.1
2017-May-19 02:30N 40°15' E 002°53'917.8
2017-May-19 02:00N 40°08' E 003°00'1318.1
2017-May-19 01:17N 40°02' E 003°15'817.8
2017-May-19 00:50N 39°58' E 003°24'617.9
2017-May-19 00:30N 39°55' E 003°31'917.8
2017-May-19 00:00N 39°50' E 003°41'917.7
2017-May-18 23:30N 39°45' E 003°51'1118.0
2017-May-18 22:52N 39°39' E 004°03'718.1
2017-May-18 22:30N 39°36' E 004°11'8918.4
2017-May-18 17:41N 38°51' E 005°49'418.2
2017-May-18 17:27N 38°49' E 005°54'818.4
2017-May-18 17:00N 38°45' E 006°04'1018.4
2017-May-18 16:28N 38°41' E 006°15'1318.7
2017-May-18 15:48N 38°37' E 006°30'1719.0
2017-May-18 14:55N 38°32' E 006°50'2919.5
2017-May-18 13:26N 38°21' E 007°25'1119.3
2017-May-18 12:52N 38°17' E 007°38'818.8
2017-May-18 12:28N 38°15' E 007°47'1018.8
2017-May-18 11:57N 38°12' E 007°59'  
Track history (hours):
 
Tides and Currents Weather Stations Pressure Air Temp Water Temp Dewpoint Dewpoint Depression Visibility Wind Speed Wind Dir Waves Ship Positions

Costa Fascinosa

Last reported at 2017-May-28 11:56 UTC. Time now 2017-May-28 12:23 UTC.
Position N 44°19' E 008°29'.

Length 291 m; draft 8.3 m.

Type: Passenger vessel. MMSI: 247313500.

Date/timePositionNaut miles runAvg speedWind from/ knotsBaromVisibWave heightAir tempDewpointWater temp
2017-May-28 11:56N 44°19' E 008°29'0 0.0
2017-May-28 11:26N 44°19' E 008°29'0 0.0
2017-May-28 10:50N 44°19' E 008°29'0 0.0
2017-May-28 10:26N 44°19' E 008°29'0 0.0
2017-May-28 09:56N 44°19' E 008°29'0 0.0
2017-May-28 09:26N 44°19' E 008°29'0 0.0
2017-May-28 08:50N 44°19' E 008°29'0 0.0
2017-May-28 08:26N 44°19' E 008°29'0 0.0
2017-May-28 07:56N 44°19' E 008°29'0 0.0
2017-May-28 07:26N 44°19' E 008°29'0 0.0
2017-May-28 06:56N 44°19' E 008°29'0 0.0
2017-May-28 06:26N 44°19' E 008°29'1 1.6
2017-May-28 06:01N 44°19' E 008°30'3 6.9
2017-May-28 05:30N 44°16' E 008°32'917.7
2017-May-28 05:01N 44°08' E 008°27'1020.8
2017-May-28 04:30N 43°59' E 008°19'1020.5
2017-May-28 04:01N 43°50' E 008°12'1019.8
2017-May-28 03:31N 43°44' E 008°02'1019.9
2017-May-28 03:01N 43°38' E 007°51'1020.1
2017-May-28 02:31N 43°32' E 007°39'1020.2
2017-May-28 02:01N 43°28' E 007°26'1020.2
2017-May-28 01:30N 43°21' E 007°16'1920.5
2017-May-28 00:35N 43°10' E 006°55'220.4
2017-May-28 00:30N 43°09' E 006°54'4119.9
2017-May-27 22:27N 42°47' E 006°06'1820.3
2017-May-27 21:34N 42°39' E 005°45'220.4
2017-May-27 21:29N 42°38' E 005°43'1320.5
2017-May-27 20:52N 42°32' E 005°28'1020.5
2017-May-27 20:24N 42°28' E 005°16'1620.6
2017-May-27 19:39N 42°20' E 004°58'820.7
2017-May-27 19:16N 42°16' E 004°49'921.0
2017-May-27 18:50N 42°12' E 004°37'720.9
2017-May-27 18:31N 42°09' E 004°30'1121.0
2017-May-27 17:59N 42°03' E 004°16'1021.3
2017-May-27 17:29N 41°58' E 004°04'1221.3
2017-May-27 16:56N 41°53' E 003°50'1120.9
2017-May-27 16:23N 41°47' E 003°37'820.8
2017-May-27 16:01N 41°44' E 003°27'1320.9
2017-May-27 15:23N 41°37' E 003°12'1020.7
2017-May-27 14:54N 41°33' E 003°00'2220.4
2017-May-27 13:49N 41°22' E 002°35'720.5
2017-May-27 13:28N 41°18' E 002°26'1020.0
2017-May-27 12:59N 41°16' E 002°14'511.5
2017-May-27 12:30N 41°20' E 002°10'2 2.8
2017-May-27 11:56N 41°22' E 002°11'0 0.0
2017-May-27 11:26N 41°22' E 002°11'0 0.0
2017-May-27 10:59N 41°22' E 002°11'0 0.0
2017-May-27 10:20N 41°22' E 002°11'0 0.0
2017-May-27 09:56N 41°22' E 002°11'0 0.0
2017-May-27 09:26N 41°22' E 002°11'0 0.0
2017-May-27 07:02N 41°22' E 002°11'0 0.0
2017-May-27 05:36N 41°22' E 002°11'0 1.9
2017-May-27 05:25N 41°21' E 002°11'4 5.1
2017-May-27 04:43N 41°18' E 002°11'210.2
2017-May-27 04:29N 41°16' E 002°11'611.3
2017-May-27 04:00N 41°10' E 002°11'611.1
2017-May-27 03:30N 41°05' E 002°11'611.5
2017-May-27 03:00N 40°59' E 002°11'611.6
2017-May-27 02:30N 40°53' E 002°11'611.7
2017-May-27 02:00N 40°47' E 002°11'611.8
2017-May-27 01:30N 40°41' E 002°12'611.8
2017-May-27 01:00N 40°35' E 002°12'611.6
2017-May-27 00:30N 40°30' E 002°12'611.4
2017-May-27 00:00N 40°24' E 002°12'611.2
2017-May-26 23:30N 40°18' E 002°13'611.2
2017-May-26 23:00N 40°13' E 002°13'611.4
2017-May-26 22:30N 40°07' E 002°14'611.5
2017-May-26 22:00N 40°01' E 002°13'611.7
2017-May-26 21:30N 39°55' E 002°14'611.7
2017-May-26 21:00N 39°50' E 002°14'711.5
2017-May-26 20:25N 39°43' E 002°14'511.7
2017-May-26 20:00N 39°38' E 002°14'611.6
2017-May-26 19:27N 39°32' E 002°15'511.9
2017-May-26 19:00N 39°27' E 002°19'611.1
2017-May-26 18:30N 39°25' E 002°26'612.1
2017-May-26 18:00N 39°25' E 002°34'612.3
2017-May-26 17:30N 39°30' E 002°38'3 0.3
2017-May-26 08:15N 39°33' E 002°38'0 0.0
2017-May-26 07:57N 39°33' E 002°38'0 0.0
2017-May-26 07:27N 39°33' E 002°38'0 0.0
2017-May-26 06:57N 39°33' E 002°38'0 0.4
2017-May-26 06:30N 39°33' E 002°38'2 3.1
2017-May-26 06:00N 39°32' E 002°39'611.6
2017-May-26 05:30N 39°27' E 002°35'612.1
2017-May-26 05:00N 39°22' E 002°30'611.7
2017-May-26 04:30N 39°17' E 002°27'611.6
2017-May-26 04:00N 39°13' E 002°21'611.8
2017-May-26 03:30N 39°09' E 002°15'611.8
2017-May-26 03:00N 39°06' E 002°08'612.0
2017-May-26 02:30N 39°03' E 002°02'612.2
2017-May-26 02:00N 38°60' E 001°55'611.9
2017-May-26 01:30N 38°57' E 001°48'612.2
2017-May-26 01:00N 38°56' E 001°41'612.5
2017-May-26 00:30N 38°54' E 001°33'5 0.3
2017-May-25 06:25N 38°54' E 001°27'3 7.0
2017-May-25 05:58N 38°51' E 001°29'4 8.2
2017-May-25 05:30N 38°51' E 001°34'918.5
2017-May-25 05:00N 38°50' E 001°46'918.7
2017-May-25 04:30N 38°49' E 001°58'918.6
2017-May-25 04:01N 38°49' E 002°10'918.3
2017-May-25 03:30N 38°48' E 002°21'1018.4
2017-May-25 02:58N 38°48' E 002°34'918.5
2017-May-25 02:30N 38°47' E 002°45'918.7
2017-May-25 02:00N 38°47' E 002°57'918.7
2017-May-25 01:30N 38°46' E 003°09'918.7
2017-May-25 01:00N 38°45' E 003°21'918.6
2017-May-25 00:30N 38°45' E 003°33'918.6
2017-May-25 00:01N 38°45' E 003°45'918.3
2017-May-24 23:30N 38°44' E 003°56'918.4
2017-May-24 23:00N 38°43' E 004°08'1618.5
2017-May-24 22:07N 38°42' E 004°29'417.7
2017-May-24 21:55N 38°42' E 004°34'4617.8
2017-May-24 19:20N 38°39' E 005°33'1217.7
2017-May-24 18:40N 38°39' E 005°48'1017.9
2017-May-24 18:07N 38°38' E 006°00'518.1
2017-May-24 17:50N 38°38' E 006°07'618.1
2017-May-24 17:30N 38°37' E 006°14'918.0
2017-May-24 16:59N 38°37' E 006°26'918.5
2017-May-24 16:28N 38°36' E 006°38'918.5
2017-May-24 15:59N 38°36' E 006°50'1318.3
2017-May-24 15:17N 38°35' E 007°06'1218.1
2017-May-24 14:39N 38°36' E 007°21'417.5
2017-May-24 14:24N 38°36' E 007°27'1112.9
2017-May-24 13:30N 38°34' E 007°41'1012.6
2017-May-24 12:44N 38°32' E 007°54'312.7
2017-May-24 12:30N 38°32' E 007°57'1012.6
2017-May-24 11:43N 38°31' E 008°10'612.6
2017-May-24 11:14N 38°31' E 008°18'712.5
2017-May-24 10:40N 38°30' E 008°27'212.6
2017-May-24 10:29N 38°30' E 008°30'712.6
2017-May-24 09:53N 38°30' E 008°39'17913.3
2017-May-23 20:23N 38°20' E 012°27'513.7
2017-May-23 20:00N 38°19' E 012°34'713.7
2017-May-23 19:28N 38°19' E 012°44'613.8
2017-May-23 19:00N 38°18' E 012°52'713.7
2017-May-23 18:30N 38°18' E 013°00'713.3
2017-May-23 18:00N 38°18' E 013°09'713.1
2017-May-23 17:30N 38°17' E 013°17'611.9
2017-May-23 17:00N 38°15' E 013°24'612.0
2017-May-23 16:30N 38°09' E 013°25'3 5.8
2017-May-23 16:01N 38°08' E 013°22'0 0.0
2017-May-23 10:55N 38°08' E 013°22'0 0.0
2017-May-23 10:25N 38°08' E 013°22'0 0.0
2017-May-23 09:49N 38°08' E 013°22'0 0.0
2017-May-23 09:25N 38°08' E 013°22'0 0.0
2017-May-23 08:55N 38°08' E 013°22'0 0.0
2017-May-23 08:28N 38°08' E 013°22'0 0.0
2017-May-23 07:58N 38°08' E 013°22'0 0.0
2017-May-23 07:28N 38°08' E 013°22'0 0.0
2017-May-23 06:58N 38°08' E 013°22'0 0.0
2017-May-23 06:30N 38°08' E 013°22'2 3.3
2017-May-23 06:00N 38°08' E 013°24'612.1
2017-May-23 05:30N 38°14' E 013°26'918.5
2017-May-23 05:00N 38°23' E 013°29'918.3
2017-May-23 04:30N 38°31' E 013°32'918.3
2017-May-23 04:00N 38°40' E 013°34'918.6
2017-May-23 03:30N 38°50' E 013°37'918.3
2017-May-23 03:00N 38°59' E 013°40'816.6
2017-May-23 02:30N 39°06' E 013°42'712.6
2017-May-23 01:56N 39°14' E 013°44'613.0
2017-May-23 01:30N 39°19' E 013°45'613.0
2017-May-23 01:00N 39°26' E 013°46'713.1
2017-May-23 00:29N 39°32' E 013°49'612.9
2017-May-23 00:00N 39°38' E 013°52'812.8
2017-May-22 23:20N 39°46' E 013°54'512.8
2017-May-22 22:57N 39°51' E 013°56'1313.0
2017-May-22 21:55N 40°04' E 013°59'513.3
2017-May-22 21:30N 40°09' E 014°01'713.2
2017-May-22 21:00N 40°16' E 014°03'713.3
2017-May-22 20:30N 40°22' E 014°05'133 7.8
2017-May-22 03:32N 41°29' E 011°33'821.2
2017-May-22 03:09N 41°33' E 011°24'521.5
2017-May-22 02:55N 41°36' E 011°19'921.6
2017-May-22 02:30N 41°41' E 011°09'1121.3
2017-May-22 02:00N 41°47' E 010°56'1820.8
2017-May-22 01:09N 41°57' E 010°37'420.6
2017-May-22 00:57N 41°59' E 010°32'920.5
2017-May-22 00:30N 42°04' E 010°22'1021.0
2017-May-22 00:00N 42°10' E 010°10'1121.4
2017-May-21 23:30N 42°17' E 009°59'1121.0
2017-May-21 23:00N 42°25' E 009°51'1021.0
2017-May-21 22:30N 42°35' E 009°45'1020.9
2017-May-21 22:00N 42°45' E 009°41'1121.1
2017-May-21 21:31N 42°55' E 009°37'1020.8
2017-May-21 21:00N 43°05' E 009°33'1020.8
2017-May-21 20:31N 43°14' E 009°26'1020.4
2017-May-21 20:01N 43°22' E 009°18'1020.5
2017-May-21 19:31N 43°31' E 009°11'1020.5
2017-May-21 19:01N 43°40' E 009°04'1020.3
2017-May-21 18:31N 43°49' E 008°57'1020.4
2017-May-21 18:00N 43°58' E 008°50'1020.6
2017-May-21 17:31N 44°07' E 008°43'1020.1
2017-May-21 17:01N 44°15' E 008°35'510.5
2017-May-21 16:30N 44°19' E 008°30'1 0.3
2017-May-21 14:21N 44°19' E 008°29'0 0.0
2017-May-21 10:51N 44°19' E 008°29'0 0.0
2017-May-21 10:27N 44°19' E 008°29'0 0.0
2017-May-21 09:57N 44°19' E 008°29'0 0.0
2017-May-21 09:27N 44°19' E 008°29'0 0.0
2017-May-21 08:57N 44°19' E 008°29'0 0.0
2017-May-21 08:27N 44°19' E 008°29'0 0.0
2017-May-21 07:57N 44°19' E 008°29'0 0.0
2017-May-21 07:27N 44°19' E 008°29'0 0.0
2017-May-21 06:51N 44°19' E 008°29'0 0.0
2017-May-21 06:30N 44°19' E 008°29'0 0.6
2017-May-21 06:00N 44°19' E 008°30'3 5.4
2017-May-21 05:30N 44°17' E 008°32'714.3
2017-May-21 05:00N 44°10' E 008°29'918.1
2017-May-21 04:30N 44°03' E 008°22'918.5
2017-May-21 04:01N 43°55' E 008°16'918.1
2017-May-21 03:31N 43°47' E 008°08'918.1
2017-May-21 03:00N 43°42' E 007°58'918.1
2017-May-21 02:30N 43°36' E 007°48'917.9
2017-May-21 02:01N 43°31' E 007°38'917.2
2017-May-21 01:30N 43°27' E 007°28'612.5
2017-May-21 01:00N 43°23' E 007°21'612.6
2017-May-21 00:30N 43°19' E 007°14'612.6
2017-May-21 00:00N 43°15' E 007°08'612.6
2017-May-20 23:30N 43°11' E 007°02'612.3
2017-May-20 23:00N 43°07' E 006°55'612.2
2017-May-20 22:30N 43°05' E 006°47'612.0
2017-May-20 22:00N 43°02' E 006°40'612.2
2017-May-20 21:30N 42°58' E 006°33'4712.9
2017-May-20 17:53N 43°04' E 005°30'513.5
2017-May-20 17:30N 43°06' E 005°24'613.1
2017-May-20 17:00N 43°09' E 005°15'612.3
2017-May-20 16:30N 43°13' E 005°09'612.2
2017-May-20 16:00N 43°18' E 005°13'510.3
2017-May-20 15:30N 43°21' E 005°19'1 1.2
2017-May-20 14:46N 43°21' E 005°20'0 0.0
2017-May-20 13:52N 43°21' E 005°20'0 0.0
2017-May-20 13:22N 43°21' E 005°20'0 0.0
2017-May-20 12:52N 43°21' E 005°20'0 0.0
2017-May-20 12:22N 43°21' E 005°20'0 0.0
2017-May-20 11:52N 43°21' E 005°20'0 0.0
2017-May-20 11:22N 43°21' E 005°20'0 0.0
2017-May-20 10:52N 43°21' E 005°20'0 0.0
2017-May-20 10:22N 43°21' E 005°20'0 0.0
2017-May-20 09:52N 43°21' E 005°20'0 0.0
2017-May-20 09:22N 43°21' E 005°20'0 0.0
2017-May-20 08:58N 43°21' E 005°20'0 0.0
2017-May-20 08:28N 43°21' E 005°20'0 0.0
2017-May-20 07:58N 43°21' E 005°20'0 0.0
2017-May-20 07:28N 43°21' E 005°20'0 0.0
2017-May-20 06:58N 43°21' E 005°20'0 0.0
2017-May-20 06:28N 43°21' E 005°20'0 0.0
2017-May-20 05:58N 43°21' E 005°20'0 0.0
2017-May-20 05:28N 43°21' E 005°20'0 0.0
2017-May-20 04:58N 43°21' E 005°20'0 0.0
2017-May-20 04:26N 43°21' E 005°20'1 3.4
2017-May-20 04:00N 43°21' E 005°18'510.8
2017-May-20 03:30N 43°17' E 005°13'816.4
2017-May-20 03:00N 43°10' E 005°07'1117.7
2017-May-20 02:24N 43°09' E 004°52'817.6
2017-May-20 01:56N 43°08' E 004°41'717.3
2017-May-20 01:30N 43°06' E 004°31'815.9
2017-May-20 01:00N 43°06' E 004°20'816.2
2017-May-20 00:30N 43°05' E 004°09'12616.1
2017-May-19 16:41N 41°23' E 002°30'518.4
2017-May-19 16:25N 41°19' E 002°25'717.0
2017-May-19 16:00N 41°15' E 002°17'612.5
2017-May-19 15:30N 41°19' E 002°10'13 1.3
2017-May-19 05:40N 41°07' E 002°17'318.9
2017-May-19 05:30N 41°05' E 002°19'1019.3
2017-May-19 05:00N 40°56' E 002°24'919.0
2017-May-19 04:30N 40°47' E 002°30'918.8
2017-May-19 04:00N 40°39' E 002°35'918.5
2017-May-19 03:30N 40°31' E 002°41'918.4
2017-May-19 03:00N 40°23' E 002°47'918.1
2017-May-19 02:30N 40°15' E 002°53'917.8
2017-May-19 02:00N 40°08' E 003°00'1318.1
2017-May-19 01:17N 40°02' E 003°15'817.8
2017-May-19 00:50N 39°58' E 003°24'617.9
2017-May-19 00:30N 39°55' E 003°31'917.8
2017-May-19 00:00N 39°50' E 003°41'917.7
2017-May-18 23:30N 39°45' E 003°51'1118.0
2017-May-18 22:52N 39°39' E 004°03'718.1
2017-May-18 22:30N 39°36' E 004°11'8918.4
2017-May-18 17:41N 38°51' E 005°49'418.2
2017-May-18 17:27N 38°49' E 005°54'818.4
2017-May-18 17:00N 38°45' E 006°04'1018.4
2017-May-18 16:28N 38°41' E 006°15'1318.7
2017-May-18 15:48N 38°37' E 006°30'1719.0
2017-May-18 14:55N 38°32' E 006°50'2919.5
2017-May-18 13:26N 38°21' E 007°25'1119.3
2017-May-18 12:52N 38°17' E 007°38'818.8
2017-May-18 12:28N 38°15' E 007°47'1018.8
2017-May-18 11:57N 38°12' E 007°59'  

Dump ship's entire track history